createdAt,value
2024-03-15T00:01:04.900Z,9.65
2024-03-15T00:03:31.865Z,9.72
2024-03-15T00:05:59.009Z,9.68
2024-03-15T00:08:26.072Z,9.70
2024-03-15T00:10:52.955Z,9.72
2024-03-15T00:13:20.011Z,9.74
2024-03-15T00:15:47.192Z,9.77
2024-03-15T00:18:14.259Z,9.71
2024-03-15T00:20:41.055Z,9.70
2024-03-15T00:23:09.376Z,9.74
2024-03-15T00:25:36.372Z,9.70
2024-03-15T00:28:03.792Z,9.64
2024-03-15T00:30:30.980Z,9.54
2024-03-15T00:32:58.974Z,9.50
2024-03-15T00:35:26.235Z,9.49
2024-03-15T00:37:53.102Z,9.51
2024-03-15T00:40:19.941Z,9.50
2024-03-15T00:42:46.642Z,9.48
2024-03-15T00:45:13.603Z,9.53
2024-03-15T00:47:40.692Z,9.60
2024-03-15T00:50:07.853Z,9.63
2024-03-15T00:52:34.755Z,9.58
2024-03-15T00:55:01.594Z,9.55
2024-03-15T00:57:28.390Z,9.49
2024-03-15T00:59:55.176Z,9.48
2024-03-15T01:02:21.985Z,9.56
2024-03-15T01:04:48.877Z,9.53
2024-03-15T01:07:15.826Z,9.52
2024-03-15T01:09:42.773Z,9.51
2024-03-15T01:12:09.566Z,9.48
2024-03-15T01:14:36.382Z,9.47
2024-03-15T01:17:03.125Z,9.50
2024-03-15T01:19:33.802Z,9.52
2024-03-15T01:22:01.760Z,9.50
2024-03-15T01:24:30.001Z,9.55
2024-03-15T01:26:58.243Z,9.55
2024-03-15T01:29:25.961Z,9.58
2024-03-15T01:31:53.046Z,9.57
2024-03-15T01:34:19.951Z,9.52
2024-03-15T01:36:46.918Z,9.53
2024-03-15T01:39:13.890Z,9.51
2024-03-15T01:41:41.051Z,9.54
2024-03-15T01:44:08.357Z,9.52
2024-03-15T01:46:36.649Z,9.50
2024-03-15T01:49:03.753Z,9.45
2024-03-15T01:51:31.983Z,9.46
2024-03-15T01:54:01.477Z,9.40
2024-03-15T01:56:28.958Z,9.39
2024-03-15T01:58:56.150Z,9.35
2024-03-15T02:01:23.078Z,9.36
2024-03-15T02:03:50.433Z,9.45
2024-03-15T02:06:17.301Z,9.43
2024-03-15T02:08:44.762Z,9.50
2024-03-15T02:11:12.387Z,9.53
2024-03-15T02:13:39.638Z,9.52
2024-03-15T02:16:06.743Z,9.64
2024-03-15T02:18:34.237Z,9.64
2024-03-15T02:21:01.079Z,9.68
2024-03-15T02:23:30.617Z,9.65
2024-03-15T02:25:57.785Z,9.70
2024-03-15T02:28:24.563Z,9.72
2024-03-15T02:30:51.547Z,9.71
2024-03-15T02:33:19.388Z,9.71
2024-03-15T02:35:47.684Z,9.73
2024-03-15T02:38:14.694Z,9.75
2024-03-15T02:40:41.450Z,9.71
2024-03-15T02:43:08.408Z,9.66
2024-03-15T02:45:36.314Z,9.68
2024-03-15T02:48:03.153Z,9.75
2024-03-15T02:50:30.091Z,9.69
2024-03-15T02:52:57.079Z,9.67
2024-03-15T02:55:24.198Z,9.68
2024-03-15T02:57:51.451Z,9.64
2024-03-15T03:00:18.438Z,9.69
2024-03-15T03:02:45.473Z,9.66
2024-03-15T03:05:13.570Z,9.71
2024-03-15T03:07:40.462Z,9.74
2024-03-15T03:10:07.739Z,9.72
2024-03-15T03:12:34.822Z,9.72
2024-03-15T03:15:01.707Z,9.68
2024-03-15T03:17:28.472Z,9.74
2024-03-15T03:19:55.328Z,9.73
2024-03-15T03:22:22.094Z,9.71
2024-03-15T03:24:49.330Z,9.71
2024-03-15T03:27:16.257Z,9.68
2024-03-15T03:29:43.177Z,9.61
2024-03-15T03:32:12.877Z,9.58
2024-03-15T03:34:40.394Z,9.53
2024-03-15T03:37:07.268Z,9.51
2024-03-15T03:39:34.142Z,9.46
2024-03-15T03:42:03.836Z,9.40
2024-03-15T03:44:30.685Z,9.31
2024-03-15T03:46:57.544Z,9.24
2024-03-15T03:49:24.561Z,9.15
2024-03-15T03:51:51.526Z,9.14
2024-03-15T03:54:18.447Z,9.09
2024-03-15T03:56:45.985Z,9.06
2024-03-15T03:59:12.901Z,9.02
2024-03-15T04:01:39.771Z,8.99
2024-03-15T04:04:07.289Z,8.92
2024-03-15T04:06:34.483Z,8.80
2024-03-15T04:09:01.935Z,8.79
2024-03-15T04:11:28.803Z,8.75
2024-03-15T04:13:55.560Z,8.67
2024-03-15T04:16:23.219Z,8.60
2024-03-15T04:18:50.135Z,8.58
2024-03-15T04:21:17.667Z,8.50
2024-03-15T04:23:44.753Z,8.52
2024-03-15T04:26:11.660Z,8.44
2024-03-15T04:28:39.326Z,8.40
2024-03-15T04:31:07.072Z,8.37
2024-03-15T04:33:34.614Z,8.41
2024-03-15T04:36:05.981Z,8.36
2024-03-15T04:38:33.707Z,8.24
2024-03-15T04:41:11.009Z,8.19
2024-03-15T04:43:38.231Z,8.14
2024-03-15T04:46:05.554Z,8.07
2024-03-15T04:48:32.677Z,8.06
2024-03-15T04:50:59.563Z,7.99
2024-03-15T04:53:26.376Z,7.95
2024-03-15T04:55:53.697Z,7.94
2024-03-15T04:58:22.399Z,7.91
2024-03-15T05:00:51.348Z,7.86
2024-03-15T05:03:18.554Z,7.84
2024-03-15T05:05:45.537Z,7.78
2024-03-15T05:08:12.302Z,7.78
2024-03-15T05:10:39.111Z,7.77
2024-03-15T05:13:07.968Z,7.81
2024-03-15T05:15:35.175Z,7.84
2024-03-15T05:18:02.478Z,7.84
2024-03-15T05:20:29.287Z,7.86
2024-03-15T05:22:56.009Z,7.82
2024-03-15T05:25:23.158Z,7.84
2024-03-15T05:27:50.216Z,7.93
2024-03-15T05:30:19.601Z,7.99
2024-03-15T05:32:47.186Z,8.08
2024-03-15T05:35:19.630Z,8.18
2024-03-15T05:37:46.859Z,8.25
2024-03-15T05:40:14.068Z,8.30
2024-03-15T05:42:41.015Z,8.40
2024-03-15T05:45:08.355Z,8.51
2024-03-15T05:47:35.293Z,8.63
2024-03-15T05:50:05.028Z,8.74
2024-03-15T05:52:35.657Z,8.92
2024-03-15T05:55:03.170Z,9.05
2024-03-15T05:57:31.008Z,9.12
2024-03-15T05:59:59.429Z,9.15
2024-03-15T06:02:26.257Z,9.26
2024-03-15T06:04:53.568Z,9.37
2024-03-15T06:07:20.414Z,9.45
2024-03-15T06:09:48.003Z,9.54
2024-03-15T06:12:15.272Z,9.64
2024-03-15T06:14:42.195Z,9.73
2024-03-15T06:17:08.912Z,9.82
2024-03-15T06:19:35.641Z,9.89
2024-03-15T06:22:02.489Z,9.99
2024-03-15T06:24:29.217Z,10.03
2024-03-15T06:26:57.828Z,10.11
2024-03-15T06:29:33.762Z,10.17
2024-03-15T06:32:04.292Z,10.26
2024-03-15T06:34:33.704Z,10.37
2024-03-15T06:37:03.311Z,10.46
2024-03-15T06:39:39.289Z,10.49
2024-03-15T06:42:32.397Z,10.61
2024-03-15T06:45:09.688Z,10.69
2024-03-15T06:47:40.482Z,10.80
2024-03-15T06:50:10.080Z,10.86
2024-03-15T06:52:36.927Z,10.94
2024-03-15T06:55:04.924Z,11.05
2024-03-15T06:57:35.142Z,11.06
2024-03-15T07:00:02.239Z,11.14
2024-03-15T07:02:31.610Z,11.23
2024-03-15T07:04:58.509Z,11.29
2024-03-15T07:07:25.510Z,11.36
2024-03-15T07:09:52.470Z,11.48
2024-03-15T07:12:19.696Z,11.57
2024-03-15T07:14:49.619Z,11.61
2024-03-15T07:17:17.286Z,11.61
2024-03-15T07:19:44.715Z,11.68
2024-03-15T07:22:11.866Z,11.78
2024-03-15T07:24:38.989Z,11.82
2024-03-15T07:27:06.114Z,11.76
2024-03-15T07:29:33.533Z,11.75
2024-03-15T07:32:00.642Z,11.77
2024-03-15T07:34:28.134Z,11.75
2024-03-15T07:36:57.948Z,11.73
2024-03-15T07:39:30.429Z,11.83
2024-03-15T07:42:00.900Z,11.86
2024-03-15T07:44:29.153Z,11.78
2024-03-15T07:46:59.373Z,11.77
2024-03-15T07:49:26.487Z,11.70
2024-03-15T07:51:53.352Z,11.70
2024-03-15T07:54:22.829Z,11.66
2024-03-15T07:56:50.695Z,11.77
2024-03-15T07:59:19.985Z,11.76
2024-03-15T08:01:47.089Z,11.75
2024-03-15T08:04:15.728Z,11.72
2024-03-15T08:06:42.773Z,11.80
2024-03-15T08:09:12.722Z,11.90
2024-03-15T08:11:40.297Z,11.88
2024-03-15T08:14:07.233Z,11.95
2024-03-15T08:16:36.978Z,11.98
2024-03-15T08:19:10.341Z,12.00
2024-03-15T08:21:38.693Z,12.05
2024-03-15T08:24:06.801Z,12.04
2024-03-15T08:26:33.789Z,12.05
2024-03-15T08:29:01.723Z,11.90
2024-03-15T08:31:28.979Z,11.96
2024-03-15T08:33:55.910Z,11.92
2024-03-15T08:36:25.518Z,11.94
2024-03-15T08:38:52.808Z,11.90
2024-03-15T08:41:19.655Z,11.91
2024-03-15T08:43:46.992Z,11.95
2024-03-15T08:46:13.921Z,12.03
2024-03-15T08:48:41.113Z,12.04
2024-03-15T08:51:09.630Z,12.08
2024-03-15T08:53:37.157Z,12.13
2024-03-15T08:56:04.870Z,12.19
2024-03-15T08:58:32.999Z,12.17
2024-03-15T09:01:00.116Z,12.27
2024-03-15T09:03:27.394Z,12.28
2024-03-15T09:05:54.949Z,12.28
2024-03-15T09:08:21.830Z,12.29
2024-03-15T09:10:48.688Z,12.35
2024-03-15T09:13:17.738Z,12.35
2024-03-15T09:15:44.966Z,12.31
2024-03-15T09:18:12.909Z,12.40
2024-03-15T09:20:44.366Z,12.50
2024-03-15T09:23:13.571Z,12.55
2024-03-15T09:25:40.598Z,12.59
2024-03-15T09:28:10.946Z,12.70
2024-03-15T09:30:50.902Z,12.79
2024-03-15T09:33:29.403Z,12.83
2024-03-15T09:35:57.343Z,12.85
2024-03-15T09:38:24.387Z,12.89
2024-03-15T09:40:58.976Z,13.04
2024-03-15T09:43:28.277Z,12.97
2024-03-15T09:45:56.259Z,13.01
2024-03-15T09:48:25.578Z,13.04
2024-03-15T09:50:55.274Z,13.07
2024-03-15T09:53:22.317Z,13.11
2024-03-15T09:55:54.499Z,13.16
2024-03-15T09:58:24.607Z,13.14
2024-03-15T10:00:52.035Z,13.07
2024-03-15T10:03:19.754Z,13.12
2024-03-15T10:05:46.746Z,13.22
2024-03-15T10:08:14.493Z,13.33
2024-03-15T10:10:46.583Z,13.42
2024-03-15T10:13:15.784Z,13.41
2024-03-15T10:15:47.428Z,13.46
2024-03-15T10:18:15.695Z,13.48
2024-03-15T10:20:43.538Z,13.53
2024-03-15T10:23:12.478Z,13.61
2024-03-15T10:25:39.973Z,13.56
2024-03-15T10:28:12.483Z,13.49
2024-03-15T10:30:41.312Z,13.46
2024-03-15T10:33:09.468Z,13.46
2024-03-15T10:35:37.475Z,13.60
2024-03-15T10:38:06.272Z,13.65
2024-03-15T10:40:35.588Z,13.64
2024-03-15T10:43:03.804Z,13.71
2024-03-15T10:45:31.231Z,13.75
2024-03-15T10:47:59.029Z,13.84
2024-03-15T10:50:31.528Z,13.84
2024-03-15T10:52:58.715Z,13.92
2024-03-15T10:55:27.499Z,14.06
2024-03-15T10:57:59.551Z,14.19
2024-03-15T11:00:29.388Z,14.35
2024-03-15T11:02:57.857Z,14.65
2024-03-15T11:05:32.788Z,14.77
2024-03-15T11:08:13.421Z,14.94
2024-03-15T11:10:44.166Z,15.10
2024-03-15T11:13:13.402Z,15.24
2024-03-15T11:15:40.996Z,15.36
2024-03-15T11:18:09.883Z,15.42
2024-03-15T11:20:54.831Z,15.42
2024-03-15T11:23:27.343Z,15.28
2024-03-15T11:25:58.388Z,15.26
2024-03-15T11:28:30.709Z,15.09
2024-03-15T11:31:01.513Z,14.94
2024-03-15T11:33:30.166Z,15.02
2024-03-15T11:35:59.336Z,15.12
2024-03-15T11:38:27.419Z,15.18
2024-03-15T11:40:57.328Z,15.29
2024-03-15T11:43:24.210Z,15.28
2024-03-15T11:45:51.932Z,15.36
2024-03-15T11:48:21.635Z,15.43
2024-03-15T11:50:50.525Z,15.40
2024-03-15T11:53:19.591Z,15.36
2024-03-15T11:55:47.894Z,15.23
2024-03-15T11:58:19.830Z,15.04
2024-03-15T12:00:49.819Z,14.96
2024-03-15T12:03:18.085Z,14.94
2024-03-15T12:05:45.484Z,14.99
2024-03-15T12:08:14.786Z,14.99
2024-03-15T12:10:44.443Z,14.95
2024-03-15T12:13:32.757Z,14.93
2024-03-15T12:16:02.001Z,14.88
2024-03-15T12:18:30.798Z,14.85
2024-03-15T12:20:58.073Z,14.75
2024-03-15T12:23:25.286Z,14.72
2024-03-15T12:25:53.633Z,14.62
2024-03-15T12:28:22.174Z,14.63
2024-03-15T12:30:51.035Z,14.64
2024-03-15T12:33:18.177Z,14.67
2024-03-15T12:35:46.110Z,14.72
2024-03-15T12:38:15.480Z,14.72
2024-03-15T12:40:45.415Z,14.80
2024-03-15T12:43:12.243Z,14.80
2024-03-15T12:45:43.370Z,14.81
2024-03-15T12:48:12.755Z,14.86
2024-03-15T12:50:41.435Z,14.95
2024-03-15T12:53:17.882Z,15.02
2024-03-15T12:55:44.698Z,15.04
2024-03-15T12:58:11.808Z,15.08
2024-03-15T13:00:39.082Z,15.09
2024-03-15T13:03:06.998Z,15.16
2024-03-15T13:05:35.248Z,15.16
2024-03-15T13:08:02.610Z,15.12
2024-03-15T13:10:30.212Z,15.25
2024-03-15T13:12:58.043Z,15.32
2024-03-15T13:15:25.238Z,15.38
2024-03-15T13:17:56.976Z,15.31
2024-03-15T13:20:24.741Z,15.16
2024-03-15T13:22:55.454Z,15.11
2024-03-15T13:25:35.177Z,15.04
2024-03-15T13:28:06.287Z,15.09
2024-03-15T13:30:34.022Z,15.09
2024-03-15T13:33:02.526Z,15.07
2024-03-15T13:35:30.278Z,15.04
2024-03-15T13:37:57.682Z,15.08
2024-03-15T13:40:26.911Z,15.04
2024-03-15T13:42:55.354Z,15.03
2024-03-15T13:45:24.596Z,15.15
2024-03-15T13:47:56.025Z,15.12
2024-03-15T13:50:23.745Z,15.06
2024-03-15T13:52:53.900Z,15.03
2024-03-15T13:55:23.020Z,15.07
2024-03-15T13:57:50.590Z,15.06
2024-03-15T14:00:36.157Z,15.05
2024-03-15T14:03:04.420Z,15.10
2024-03-15T14:05:40.008Z,15.07
2024-03-15T14:08:10.435Z,15.06
2024-03-15T14:10:39.527Z,14.91
2024-03-15T14:13:08.086Z,14.89
2024-03-15T14:15:40.132Z,14.85
2024-03-15T14:18:11.930Z,14.87
2024-03-15T14:20:40.455Z,14.87
2024-03-15T14:23:07.854Z,14.96
2024-03-15T14:25:35.278Z,14.96
2024-03-15T14:28:04.606Z,14.99
2024-03-15T14:30:34.642Z,15.01
2024-03-15T14:33:02.826Z,15.06
2024-03-15T14:35:30.684Z,15.12
2024-03-15T14:37:57.785Z,15.14
2024-03-15T14:40:25.402Z,15.08
2024-03-15T14:42:56.414Z,15.13
2024-03-15T14:45:25.033Z,15.43
2024-03-15T14:47:55.700Z,15.50
2024-03-15T14:50:25.445Z,15.15
2024-03-15T14:52:52.367Z,14.96
2024-03-15T14:55:19.543Z,14.87
2024-03-15T14:57:46.567Z,14.81
2024-03-15T15:00:14.312Z,14.92
2024-03-15T15:02:43.931Z,14.84
2024-03-15T15:05:11.405Z,14.73
2024-03-15T15:07:38.321Z,14.73
2024-03-15T15:10:09.196Z,14.68
2024-03-15T15:12:37.297Z,14.51
2024-03-15T15:15:08.063Z,14.45
2024-03-15T15:17:35.554Z,14.41
2024-03-15T15:20:10.316Z,14.30
2024-03-15T15:22:39.440Z,14.26
2024-03-15T15:25:11.912Z,14.18
2024-03-15T15:27:40.080Z,14.17
2024-03-15T15:30:08.618Z,14.25
2024-03-15T15:32:35.530Z,14.19
2024-03-15T15:35:09.277Z,14.15
2024-03-15T15:37:39.500Z,14.11
2024-03-15T15:40:18.340Z,14.18
2024-03-15T15:42:49.905Z,14.17
2024-03-15T15:45:18.812Z,14.03
2024-03-15T15:47:46.652Z,13.90
2024-03-15T15:50:21.048Z,13.88
2024-03-15T15:52:49.408Z,13.88
2024-03-15T15:55:17.559Z,13.84
2024-03-15T15:57:44.757Z,13.83
2024-03-15T16:00:16.285Z,13.78
2024-03-15T16:02:43.743Z,13.78
2024-03-15T16:05:11.138Z,13.74
2024-03-15T16:07:38.250Z,13.75
2024-03-15T16:10:05.852Z,13.73
2024-03-15T16:12:33.595Z,13.72
2024-03-15T16:15:02.688Z,13.63
2024-03-15T16:17:31.034Z,13.64
2024-03-15T16:19:57.884Z,13.58
2024-03-15T16:22:24.756Z,13.55
2024-03-15T16:24:53.265Z,13.53
2024-03-15T16:27:20.057Z,13.50
2024-03-15T16:29:46.743Z,13.47
2024-03-15T16:32:13.516Z,13.48
2024-03-15T16:34:41.624Z,13.48
2024-03-15T16:37:08.441Z,13.43
2024-03-15T16:39:35.347Z,13.44
2024-03-15T16:42:02.282Z,13.36
2024-03-15T16:44:28.969Z,13.33
2024-03-15T16:46:56.177Z,13.29
2024-03-15T16:49:22.929Z,13.26
2024-03-15T16:51:52.208Z,13.25
2024-03-15T16:54:19.400Z,13.22
2024-03-15T16:56:46.520Z,13.15
2024-03-15T16:59:13.518Z,13.16
2024-03-15T17:01:40.837Z,13.12
2024-03-15T17:04:11.136Z,13.09
2024-03-15T17:06:39.371Z,13.08
2024-03-15T17:09:13.721Z,13.06
2024-03-15T17:11:40.944Z,13.04
2024-03-15T17:14:07.743Z,12.99
2024-03-15T17:16:34.824Z,12.91
2024-03-15T17:19:03.529Z,12.88
2024-03-15T17:21:30.523Z,12.85
2024-03-15T17:23:57.472Z,12.80
2024-03-15T17:26:24.215Z,12.78
2024-03-15T17:28:51.098Z,12.78
2024-03-15T17:31:17.878Z,12.74
2024-03-15T17:33:45.919Z,12.74
2024-03-15T17:36:13.137Z,12.69
2024-03-15T17:38:40.672Z,12.68
2024-03-15T17:41:07.647Z,12.66
2024-03-15T17:43:34.507Z,12.62
2024-03-15T17:46:01.320Z,12.65
2024-03-15T17:48:28.592Z,12.61
2024-03-15T17:50:55.834Z,12.57
2024-03-15T17:53:22.630Z,12.62
2024-03-15T17:55:49.379Z,12.56
2024-03-15T17:58:16.153Z,12.57
2024-03-15T18:00:43.100Z,12.63
2024-03-15T18:03:09.981Z,12.65
2024-03-15T18:05:37.850Z,12.63
2024-03-15T18:08:05.155Z,12.66
2024-03-15T18:10:32.099Z,12.64
2024-03-15T18:12:59.017Z,12.69
2024-03-15T18:15:26.006Z,12.70
2024-03-15T18:17:53.185Z,12.69
2024-03-15T18:20:20.423Z,12.70
2024-03-15T18:22:47.161Z,12.67
2024-03-15T18:25:14.076Z,12.68
2024-03-15T18:27:40.924Z,12.67
2024-03-15T18:30:10.016Z,12.69
2024-03-15T18:32:37.993Z,12.70
2024-03-15T18:35:05.701Z,12.67
2024-03-15T18:37:33.849Z,12.71
2024-03-15T18:40:00.845Z,12.68
2024-03-15T18:42:28.031Z,12.65
2024-03-15T18:44:57.917Z,12.66
2024-03-15T18:47:24.746Z,12.67
2024-03-15T18:49:53.070Z,12.64
2024-03-15T18:52:20.214Z,12.68
2024-03-15T18:54:54.186Z,12.71
2024-03-15T18:57:22.848Z,12.77
2024-03-15T18:59:58.559Z,12.72
2024-03-15T19:02:30.297Z,12.75
2024-03-15T19:04:57.116Z,12.76
2024-03-15T19:07:23.869Z,12.73
2024-03-15T19:09:50.763Z,12.69
2024-03-15T19:12:17.551Z,12.65
2024-03-15T19:14:44.375Z,12.66
2024-03-15T19:17:15.102Z,12.65
2024-03-15T19:19:42.159Z,12.65
2024-03-15T19:22:09.121Z,12.63
2024-03-15T19:24:36.012Z,12.58
2024-03-15T19:27:02.696Z,12.53
2024-03-15T19:29:30.494Z,12.55
2024-03-15T19:31:57.422Z,12.54
2024-03-15T19:34:24.323Z,12.54
2024-03-15T19:36:52.125Z,12.51
2024-03-15T19:39:18.940Z,12.51
2024-03-15T19:41:45.863Z,12.46
2024-03-15T19:44:12.663Z,12.39
2024-03-15T19:46:39.312Z,12.36
2024-03-15T19:49:06.310Z,12.33
2024-03-15T19:51:33.637Z,12.30
2024-03-15T19:54:00.403Z,12.33
2024-03-15T19:56:27.135Z,12.28
2024-03-15T19:58:53.896Z,12.20
2024-03-15T20:01:20.773Z,12.16
2024-03-15T20:03:47.641Z,12.13
2024-03-15T20:06:14.638Z,12.04
2024-03-15T20:08:41.588Z,11.96
2024-03-15T20:11:13.306Z,11.93
2024-03-15T20:13:43.229Z,12.01
2024-03-15T20:16:10.372Z,11.91
2024-03-15T20:18:37.380Z,11.83
2024-03-15T20:21:05.062Z,11.83
2024-03-15T20:23:31.876Z,11.85
2024-03-15T20:25:58.632Z,11.84
2024-03-15T20:28:25.288Z,11.75
2024-03-15T20:30:54.323Z,11.66
2024-03-15T20:33:21.157Z,11.65
2024-03-15T20:35:48.078Z,11.66
2024-03-15T20:38:17.530Z,11.67
2024-03-15T20:40:48.238Z,11.67
2024-03-15T20:43:15.193Z,11.68
2024-03-15T20:45:42.112Z,11.62
2024-03-15T20:48:09.012Z,11.60
2024-03-15T20:50:35.759Z,11.62
2024-03-15T20:53:02.994Z,11.64
2024-03-15T20:55:29.857Z,11.58
2024-03-15T20:57:56.647Z,11.57
2024-03-15T21:00:23.432Z,11.55
2024-03-15T21:02:50.938Z,11.52
2024-03-15T21:05:17.972Z,11.51
2024-03-15T21:07:44.728Z,11.52
2024-03-15T21:10:11.866Z,11.54
2024-03-15T21:12:39.276Z,11.49
2024-03-15T21:15:09.816Z,11.45
2024-03-15T21:17:38.427Z,11.44
2024-03-15T21:20:13.780Z,11.44
2024-03-15T21:22:41.100Z,11.49
2024-03-15T21:25:09.362Z,11.45
2024-03-15T21:27:36.369Z,11.40
2024-03-15T21:30:03.607Z,11.39
2024-03-15T21:32:30.662Z,11.36
2024-03-15T21:34:57.455Z,11.40
2024-03-15T21:37:24.730Z,11.39
2024-03-15T21:39:51.709Z,11.43
2024-03-15T21:42:18.884Z,11.38
2024-03-15T21:44:47.213Z,11.37
2024-03-15T21:47:13.971Z,11.40
2024-03-15T21:49:40.760Z,11.34
2024-03-15T21:52:07.741Z,11.31
2024-03-15T21:54:34.559Z,11.30
2024-03-15T21:57:01.272Z,11.26
2024-03-15T21:59:28.193Z,11.19
2024-03-15T22:02:00.184Z,11.10
2024-03-15T22:04:31.675Z,11.02
2024-03-15T22:06:59.000Z,10.90
2024-03-15T22:09:27.506Z,10.84
2024-03-15T22:11:54.617Z,10.81
2024-03-15T22:14:21.496Z,10.71
2024-03-15T22:16:48.351Z,10.70
2024-03-15T22:19:15.132Z,10.63
2024-03-15T22:21:42.025Z,10.56
2024-03-15T22:24:09.613Z,10.42
2024-03-15T22:26:36.485Z,10.29
2024-03-15T22:29:03.236Z,10.18
2024-03-15T22:31:30.920Z,10.19
2024-03-15T22:33:57.678Z,10.19
2024-03-15T22:36:24.746Z,9.95
2024-03-15T22:38:53.984Z,9.90
2024-03-15T22:41:24.468Z,9.78
2024-03-15T22:43:52.389Z,9.73
2024-03-15T22:46:19.244Z,9.68
2024-03-15T22:48:46.565Z,9.66
2024-03-15T22:51:13.487Z,9.52
2024-03-15T22:53:40.685Z,9.50
2024-03-15T22:56:07.525Z,9.47
2024-03-15T22:58:34.263Z,9.41
2024-03-15T23:01:06.555Z,9.32
2024-03-15T23:03:36.018Z,9.27
2024-03-15T23:06:07.479Z,9.16
2024-03-15T23:08:34.278Z,9.12
2024-03-15T23:11:01.072Z,9.02
2024-03-15T23:13:28.207Z,8.99
2024-03-15T23:15:55.984Z,8.85
2024-03-15T23:18:23.029Z,8.90
2024-03-15T23:20:50.772Z,8.94
2024-03-15T23:23:17.622Z,8.89
2024-03-15T23:25:45.633Z,8.87
2024-03-15T23:28:12.642Z,8.90
2024-03-15T23:30:39.378Z,8.99
2024-03-15T23:33:07.270Z,8.98
2024-03-15T23:35:34.358Z,9.00
2024-03-15T23:38:01.145Z,8.94
2024-03-15T23:40:28.010Z,9.04
2024-03-15T23:42:54.856Z,9.05
2024-03-15T23:45:21.577Z,9.03
2024-03-15T23:47:48.350Z,8.98
2024-03-15T23:50:15.264Z,9.04
2024-03-15T23:52:41.984Z,9.02
2024-03-15T23:55:09.621Z,8.99
2024-03-15T23:57:37.087Z,9.07
